createdAt,value
2022-12-03T00:01:24.302Z,40.25
2022-12-03T00:03:51.718Z,40.63
2022-12-03T00:06:19.186Z,42.90
2022-12-03T00:08:46.429Z,37.42
2022-12-03T00:11:13.672Z,39.15
2022-12-03T00:13:40.887Z,43.30
2022-12-03T00:16:08.371Z,38.13
2022-12-03T00:18:35.776Z,38.50
2022-12-03T00:21:03.237Z,42.35
2022-12-03T00:23:32.586Z,38.70
2022-12-03T00:26:01.467Z,38.72
2022-12-03T00:28:28.774Z,38.10
2022-12-03T00:30:56.099Z,44.42
2022-12-03T00:33:24.319Z,39.78
2022-12-03T00:36:00.259Z,43.88
2022-12-03T00:38:27.606Z,39.33
2022-12-03T00:40:54.847Z,41.53
2022-12-03T00:43:22.084Z,42.08
2022-12-03T00:45:49.334Z,39.40
2022-12-03T00:48:16.612Z,36.67
2022-12-03T00:50:43.903Z,40.67
2022-12-03T00:53:11.196Z,38.45
2022-12-03T00:55:38.446Z,44.70
2022-12-03T00:58:08.273Z,35.60
2022-12-03T01:00:36.011Z,49.58
2022-12-03T01:03:03.511Z,37.92
2022-12-03T01:05:30.862Z,41.45
2022-12-03T01:07:58.269Z,43.10
2022-12-03T01:10:25.541Z,37.97
2022-12-03T01:12:52.763Z,37.13
2022-12-03T01:15:20.200Z,42.08
2022-12-03T01:17:47.440Z,44.67
2022-12-03T01:20:14.802Z,38.65
2022-12-03T01:22:44.030Z,44.47
2022-12-03T01:25:11.498Z,40.47
2022-12-03T01:27:38.782Z,37.42
2022-12-03T01:30:06.399Z,42.22
2022-12-03T01:32:33.659Z,40.95
2022-12-03T01:35:01.047Z,38.95
2022-12-03T01:37:28.446Z,37.78
2022-12-03T01:39:55.810Z,36.65
2022-12-03T01:42:24.658Z,41.67
2022-12-03T01:44:53.589Z,42.80
2022-12-03T01:47:23.256Z,39.03
2022-12-03T01:49:56.638Z,43.92
2022-12-03T01:52:25.447Z,44.90
2022-12-03T01:54:56.931Z,38.03
2022-12-03T01:57:26.988Z,41.20
2022-12-03T01:59:57.263Z,37.00
2022-12-03T02:02:31.712Z,40.40
2022-12-03T02:04:59.574Z,35.95
2022-12-03T02:07:26.912Z,37.38
2022-12-03T02:09:54.781Z,36.83
2022-12-03T02:12:24.111Z,40.28
2022-12-03T02:14:52.141Z,50.47
2022-12-03T02:17:19.601Z,46.70
2022-12-03T02:19:47.055Z,35.08
2022-12-03T02:22:34.586Z,36.72
2022-12-03T02:25:12.929Z,38.45
2022-12-03T02:27:40.704Z,38.15
2022-12-03T02:30:08.284Z,40.83
2022-12-03T02:32:35.540Z,42.75
2022-12-03T02:35:02.924Z,38.90
2022-12-03T02:37:35.711Z,36.58
2022-12-03T02:40:04.810Z,39.95
2022-12-03T02:42:34.956Z,35.33
2022-12-03T02:45:22.434Z,38.95
2022-12-03T02:47:54.507Z,40.55
2022-12-03T02:50:23.534Z,42.42
2022-12-03T02:52:52.793Z,30.10
2022-12-03T02:55:20.411Z,38.55
2022-12-03T02:57:48.605Z,35.35
2022-12-03T03:00:19.498Z,38.53
2022-12-03T03:02:47.854Z,37.88
2022-12-03T03:05:15.944Z,39.15
2022-12-03T03:07:43.533Z,40.50
2022-12-03T03:10:13.109Z,38.00
2022-12-03T03:12:40.628Z,37.85
2022-12-03T03:15:08.586Z,43.55
2022-12-03T03:17:36.029Z,38.28
2022-12-03T03:20:04.283Z,36.85
2022-12-03T03:22:35.260Z,39.75
2022-12-03T03:25:02.763Z,39.83
2022-12-03T03:27:30.359Z,39.97
2022-12-03T03:29:58.751Z,35.08
2022-12-03T03:32:26.977Z,41.05
2022-12-03T03:34:54.597Z,42.40
2022-12-03T03:37:22.235Z,38.78
2022-12-03T03:39:49.475Z,37.53
2022-12-03T03:42:16.873Z,35.97
2022-12-03T03:44:44.343Z,38.90
2022-12-03T03:47:11.729Z,42.30
2022-12-03T03:49:39.004Z,41.47
2022-12-03T03:52:06.464Z,35.50
2022-12-03T03:54:33.779Z,43.63
2022-12-03T03:57:01.070Z,45.50
2022-12-03T03:59:29.178Z,38.20
2022-12-03T04:01:56.723Z,45.58
2022-12-03T04:04:26.672Z,41.75
2022-12-03T04:06:53.979Z,42.67
2022-12-03T04:09:21.254Z,46.30
2022-12-03T04:12:07.137Z,40.58
2022-12-03T04:14:35.678Z,44.70
2022-12-03T04:17:03.091Z,44.15
2022-12-03T04:19:30.302Z,49.72
2022-12-03T04:22:17.043Z,46.35
2022-12-03T04:24:44.619Z,50.72
2022-12-03T04:27:30.701Z,51.33
2022-12-03T04:29:57.981Z,45.88
2022-12-03T04:32:43.980Z,49.50
2022-12-03T04:35:30.239Z,49.30
2022-12-03T04:37:57.620Z,50.67
2022-12-03T04:40:46.473Z,48.85
2022-12-03T04:43:13.905Z,48.70
2022-12-03T04:45:41.232Z,53.83
2022-12-03T04:48:08.529Z,50.33
2022-12-03T04:50:35.779Z,46.20
2022-12-03T04:53:03.054Z,46.65
2022-12-03T04:55:30.283Z,50.40
2022-12-03T04:57:57.538Z,47.28
2022-12-03T05:00:24.987Z,44.92
2022-12-03T05:02:52.268Z,53.55
2022-12-03T05:05:19.690Z,54.92
2022-12-03T05:07:46.954Z,50.40
2022-12-03T05:10:14.309Z,48.05
2022-12-03T05:12:41.597Z,51.08
2022-12-03T05:15:08.986Z,48.05
2022-12-03T05:17:36.218Z,55.40
2022-12-03T05:20:22.628Z,48.00
2022-12-03T05:22:49.826Z,51.17
2022-12-03T05:25:17.013Z,51.45
2022-12-03T05:27:44.164Z,52.20
2022-12-03T05:30:11.611Z,51.80
2022-12-03T05:32:38.817Z,53.00
2022-12-03T05:35:06.253Z,49.08
2022-12-03T05:37:33.540Z,51.58
2022-12-03T05:40:00.786Z,52.60
2022-12-03T05:42:46.581Z,50.65
2022-12-03T05:45:13.779Z,48.17
2022-12-03T05:47:41.006Z,50.20
2022-12-03T05:50:08.485Z,50.40
2022-12-03T05:52:35.766Z,55.00
2022-12-03T05:55:03.024Z,49.35
2022-12-03T05:57:30.354Z,47.38
2022-12-03T05:59:57.719Z,53.05
2022-12-03T06:02:25.081Z,44.72
2022-12-03T06:04:52.753Z,53.10
2022-12-03T06:07:20.162Z,43.92
2022-12-03T06:09:47.421Z,47.25
2022-12-03T06:12:14.628Z,46.03
2022-12-03T06:14:44.985Z,48.58
2022-12-03T06:17:12.226Z,46.33
2022-12-03T06:19:39.644Z,50.35
2022-12-03T06:22:06.839Z,49.95
2022-12-03T06:24:34.075Z,49.70
2022-12-03T06:27:01.254Z,55.10
2022-12-03T06:29:28.481Z,45.20
2022-12-03T06:31:55.748Z,49.38
2022-12-03T06:34:23.086Z,47.17
2022-12-03T06:36:50.395Z,44.42
2022-12-03T06:39:17.866Z,52.22
2022-12-03T06:41:45.082Z,49.85
2022-12-03T06:44:13.042Z,50.53
2022-12-03T06:46:40.424Z,52.45
2022-12-03T06:49:09.219Z,48.70
2022-12-03T06:51:36.815Z,47.90
2022-12-03T06:54:04.625Z,48.17
2022-12-03T06:56:36.788Z,48.42
2022-12-03T06:59:06.621Z,42.85
2022-12-03T07:01:34.175Z,49.97
2022-12-03T07:04:01.458Z,50.28
2022-12-03T07:06:28.737Z,45.72
2022-12-03T07:08:56.031Z,46.00
2022-12-03T07:11:32.831Z,45.08
2022-12-03T07:14:05.937Z,55.60
2022-12-03T07:16:33.766Z,56.42
2022-12-03T07:19:01.107Z,50.47
2022-12-03T07:21:28.346Z,51.88
2022-12-03T07:23:57.013Z,52.15
2022-12-03T07:26:24.257Z,56.90
2022-12-03T07:28:51.533Z,49.72
2022-12-03T07:31:18.816Z,54.58
2022-12-03T07:33:46.123Z,50.53
2022-12-03T07:36:13.917Z,54.53
2022-12-03T07:38:41.167Z,51.33
2022-12-03T07:41:08.389Z,48.47
2022-12-03T07:43:35.654Z,57.85
2022-12-03T07:46:02.899Z,51.35
2022-12-03T07:48:30.098Z,56.20
2022-12-03T07:50:58.875Z,52.92
2022-12-03T07:53:26.040Z,50.92
2022-12-03T07:55:53.312Z,56.53
2022-12-03T07:58:20.545Z,51.58
2022-12-03T08:00:47.912Z,54.38
2022-12-03T08:03:15.102Z,58.05
2022-12-03T08:05:42.290Z,55.90
2022-12-03T08:08:09.648Z,56.20
2022-12-03T08:10:37.099Z,56.97
2022-12-03T08:13:07.391Z,54.50
2022-12-03T08:15:39.346Z,57.67
2022-12-03T08:18:22.520Z,55.55
2022-12-03T08:20:51.219Z,62.70
2022-12-03T08:23:19.672Z,47.55
2022-12-03T08:25:47.229Z,55.42
2022-12-03T08:28:16.777Z,53.67
2022-12-03T08:30:44.622Z,51.28
2022-12-03T08:33:21.156Z,54.17
2022-12-03T08:35:50.956Z,54.25
2022-12-03T08:38:19.734Z,52.22
2022-12-03T08:40:48.297Z,48.77
2022-12-03T08:43:24.723Z,50.03
2022-12-03T08:45:53.534Z,50.47
2022-12-03T08:48:20.900Z,48.13
2022-12-03T08:50:48.280Z,55.20
2022-12-03T08:53:27.759Z,52.78
2022-12-03T08:55:56.778Z,49.38
2022-12-03T08:58:23.990Z,43.38
2022-12-03T09:01:14.582Z,52.13
2022-12-03T09:03:52.387Z,46.25
2022-12-03T09:06:19.646Z,46.80
2022-12-03T09:08:49.014Z,47.30
2022-12-03T09:11:16.277Z,47.95
2022-12-03T09:13:43.676Z,57.75
2022-12-03T09:16:10.980Z,55.35
2022-12-03T09:18:41.299Z,50.42
2022-12-03T09:21:08.557Z,54.17
2022-12-03T09:23:35.787Z,47.40
2022-12-03T09:26:02.993Z,45.65
2022-12-03T09:28:30.295Z,44.72
2022-12-03T09:30:59.575Z,46.83
2022-12-03T09:33:26.793Z,48.15
2022-12-03T09:35:54.055Z,48.78
2022-12-03T09:38:21.234Z,43.33
2022-12-03T09:40:51.146Z,45.25
2022-12-03T09:43:21.329Z,47.95
2022-12-03T09:45:49.670Z,44.72
2022-12-03T09:48:19.049Z,47.33
2022-12-03T09:50:47.216Z,47.53
2022-12-03T09:53:16.562Z,48.75
2022-12-03T09:55:45.580Z,50.35
2022-12-03T09:58:13.728Z,43.85
2022-12-03T10:00:42.432Z,43.97
2022-12-03T10:03:13.372Z,42.72
2022-12-03T10:05:46.607Z,46.83
2022-12-03T10:08:18.612Z,46.72
2022-12-03T10:10:48.391Z,44.13
2022-12-03T10:13:29.446Z,40.97
2022-12-03T10:15:58.255Z,54.25
2022-12-03T10:18:30.827Z,53.37
2022-12-03T10:20:58.545Z,58.83
2022-12-03T10:23:27.658Z,44.42
2022-12-03T10:25:59.288Z,36.45
2022-12-03T10:28:53.170Z,49.30
2022-12-03T10:31:35.542Z,46.55
2022-12-03T10:34:03.110Z,52.75
2022-12-03T10:36:30.406Z,43.80
2022-12-03T10:39:14.411Z,47.58
2022-12-03T10:41:42.809Z,56.25
2022-12-03T10:44:20.510Z,51.30
2022-12-03T10:47:05.843Z,54.28
2022-12-03T10:49:33.505Z,57.53
2022-12-03T10:52:00.956Z,61.17
2022-12-03T10:54:30.884Z,58.00
2022-12-03T10:56:58.499Z,60.90
2022-12-03T10:59:27.336Z,58.55
2022-12-03T11:01:54.635Z,65.40
2022-12-03T11:04:29.217Z,59.75
2022-12-03T11:06:56.535Z,61.78
2022-12-03T11:09:28.800Z,61.30
2022-12-03T11:11:56.493Z,58.42
2022-12-03T11:14:42.520Z,54.75
2022-12-03T11:17:09.846Z,70.97
2022-12-03T11:19:37.114Z,59.35
2022-12-03T11:22:07.090Z,66.22
2022-12-03T11:24:36.030Z,62.63
2022-12-03T11:27:03.321Z,55.35
2022-12-03T11:29:49.705Z,58.08
2022-12-03T11:32:46.477Z,66.65
2022-12-03T11:35:13.722Z,60.10
2022-12-03T11:37:40.929Z,62.35
2022-12-03T11:40:17.600Z,61.53
2022-12-03T11:42:45.898Z,64.70
2022-12-03T11:45:16.280Z,69.18
2022-12-03T11:47:45.472Z,62.03
2022-12-03T11:50:18.760Z,51.15
2022-12-03T11:52:47.615Z,72.38
2022-12-03T11:55:14.958Z,62.42
2022-12-03T11:57:43.394Z,64.97
2022-12-03T12:00:14.243Z,64.28
2022-12-03T12:02:42.505Z,62.30
2022-12-03T12:05:17.332Z,71.53
2022-12-03T12:07:47.899Z,60.85
2022-12-03T12:10:35.188Z,65.55
2022-12-03T12:13:02.498Z,60.75
2022-12-03T12:15:35.746Z,59.50
2022-12-03T12:18:21.770Z,63.58
2022-12-03T12:20:49.107Z,57.58
2022-12-03T12:23:23.596Z,59.80
2022-12-03T12:25:54.199Z,69.03
2022-12-03T12:28:21.691Z,63.15
2022-12-03T12:30:50.015Z,65.20
2022-12-03T12:33:24.217Z,69.85
2022-12-03T12:35:51.672Z,69.88
2022-12-03T12:38:20.256Z,77.28
2022-12-03T12:40:49.522Z,72.28
2022-12-03T12:43:24.025Z,72.65
2022-12-03T12:45:53.727Z,67.15
2022-12-03T12:48:23.790Z,66.15
2022-12-03T12:50:58.692Z,53.58
2022-12-03T12:53:27.426Z,62.97
2022-12-03T12:55:59.659Z,55.73
2022-12-03T12:58:29.342Z,65.93
2022-12-03T13:03:26.746Z,65.85
2022-12-03T13:05:54.325Z,64.97
2022-12-03T13:08:26.554Z,64.40
2022-12-03T13:10:55.125Z,71.80
2022-12-03T13:13:25.274Z,71.65
2022-12-03T13:15:53.976Z,67.15
2022-12-03T13:18:21.607Z,62.03
2022-12-03T13:20:49.189Z,65.45
2022-12-03T13:23:35.916Z,73.55
2022-12-03T13:26:23.819Z,72.38
2022-12-03T13:28:57.308Z,70.43
2022-12-03T13:31:24.884Z,70.22
2022-12-03T13:33:52.652Z,64.68
2022-12-03T13:36:21.031Z,74.38
2022-12-03T13:38:48.519Z,69.60
2022-12-03T13:41:37.179Z,61.35
2022-12-03T13:44:13.008Z,63.22
2022-12-03T13:46:40.446Z,67.68
2022-12-03T13:49:26.488Z,66.60
2022-12-03T13:51:53.829Z,64.97
2022-12-03T13:54:22.595Z,66.40
2022-12-03T13:56:51.121Z,57.37
2022-12-03T13:59:22.942Z,64.28
2022-12-03T14:01:53.381Z,66.18
2022-12-03T14:04:20.635Z,70.55
2022-12-03T14:06:47.940Z,69.43
2022-12-03T14:09:15.309Z,64.85
2022-12-03T14:12:01.311Z,67.30
2022-12-03T14:14:28.481Z,56.22
2022-12-03T14:16:59.860Z,61.03
2022-12-03T14:19:27.708Z,61.67
2022-12-03T14:21:55.233Z,60.58
2022-12-03T14:24:22.470Z,59.00
2022-12-03T14:26:49.725Z,60.60
2022-12-03T14:29:17.575Z,60.90
2022-12-03T14:31:44.852Z,56.13
2022-12-03T14:34:12.361Z,61.25
2022-12-03T14:36:40.237Z,64.03
2022-12-03T14:39:07.686Z,71.93
2022-12-03T14:41:53.520Z,60.38
2022-12-03T14:44:24.989Z,55.90
2022-12-03T14:46:57.046Z,56.22
2022-12-03T14:49:25.135Z,57.65
2022-12-03T14:51:52.393Z,61.40
2022-12-03T14:54:19.669Z,58.10
2022-12-03T14:56:46.925Z,52.55
2022-12-03T14:59:14.230Z,63.35
2022-12-03T15:01:41.700Z,54.28
2022-12-03T15:04:09.113Z,59.13
2022-12-03T15:06:36.392Z,59.70
2022-12-03T15:09:03.803Z,58.00
2022-12-03T15:11:31.007Z,58.20
2022-12-03T15:13:58.387Z,56.53
2022-12-03T15:16:25.855Z,62.90
2022-12-03T15:18:53.623Z,51.53
2022-12-03T15:21:21.056Z,53.33
2022-12-03T15:23:48.321Z,45.17
2022-12-03T15:26:15.649Z,47.95
2022-12-03T15:28:48.038Z,50.88
2022-12-03T15:31:15.723Z,48.75
2022-12-03T15:33:42.994Z,43.92
2022-12-03T15:36:10.406Z,43.25
2022-12-03T15:38:37.711Z,52.25
2022-12-03T15:41:23.917Z,53.15
2022-12-03T15:43:52.835Z,49.20
2022-12-03T15:46:20.740Z,47.08
2022-12-03T15:48:48.716Z,54.95
2022-12-03T15:51:16.207Z,50.65
2022-12-03T15:53:43.899Z,49.30
2022-12-03T15:56:12.109Z,47.90
2022-12-03T15:58:40.188Z,53.95
2022-12-03T16:01:08.037Z,52.10
2022-12-03T16:03:35.570Z,56.13
2022-12-03T16:06:03.006Z,55.33
2022-12-03T16:08:30.385Z,45.67
2022-12-03T16:10:57.616Z,53.40
2022-12-03T16:13:26.132Z,51.85
2022-12-03T16:15:53.650Z,58.40
2022-12-03T16:18:21.040Z,49.10
2022-12-03T16:20:48.321Z,53.00
2022-12-03T16:23:15.518Z,58.05
2022-12-03T16:25:42.773Z,46.38
2022-12-03T16:28:10.081Z,53.00
2022-12-03T16:30:37.499Z,46.45
2022-12-03T16:33:04.851Z,50.28
2022-12-03T16:35:32.166Z,54.17
2022-12-03T16:37:59.454Z,55.75
2022-12-03T16:40:26.755Z,49.28
2022-12-03T16:42:54.093Z,50.83
2022-12-03T16:45:21.384Z,47.28
2022-12-03T16:47:49.503Z,62.72
2022-12-03T16:50:24.471Z,53.35
2022-12-03T16:52:56.391Z,50.47
2022-12-03T16:55:23.632Z,59.05
2022-12-03T16:57:50.933Z,60.42
2022-12-03T17:00:18.558Z,54.80
2022-12-03T17:02:45.977Z,52.42
2022-12-03T17:05:13.369Z,53.53
2022-12-03T17:07:40.831Z,62.05
2022-12-03T17:10:08.637Z,52.63
2022-12-03T17:13:01.254Z,59.92
2022-12-03T17:15:23.140Z,56.67
2022-12-03T17:17:50.419Z,59.00
2022-12-03T17:20:18.093Z,63.03
2022-12-03T17:22:45.472Z,61.50
2022-12-03T17:25:13.011Z,53.03
2022-12-03T17:27:45.170Z,55.50
2022-12-03T17:30:13.548Z,60.65
2022-12-03T17:32:41.078Z,58.83
2022-12-03T17:35:08.885Z,61.00
2022-12-03T17:37:36.474Z,64.60
2022-12-03T17:40:07.835Z,53.70
2022-12-03T17:42:35.260Z,55.83
2022-12-03T17:45:02.589Z,54.10
2022-12-03T17:47:29.846Z,52.35
2022-12-03T17:49:57.502Z,57.70
2022-12-03T17:52:24.963Z,52.58
2022-12-03T17:55:10.420Z,46.03
2022-12-03T17:57:38.301Z,60.97
2022-12-03T18:00:05.962Z,52.90
2022-12-03T18:02:39.386Z,55.17
2022-12-03T18:05:07.138Z,53.15
2022-12-03T18:07:34.552Z,57.05
2022-12-03T18:10:02.024Z,56.90
2022-12-03T18:12:29.243Z,57.38
2022-12-03T18:14:57.401Z,51.83
2022-12-03T18:17:24.671Z,53.15
2022-12-03T18:19:52.145Z,50.88
2022-12-03T18:22:20.021Z,54.90
2022-12-03T18:24:50.276Z,64.43
2022-12-03T18:27:20.755Z,62.78
2022-12-03T18:29:48.012Z,50.53
2022-12-03T18:34:57.146Z,94.40
2022-12-03T18:37:26.839Z,81.53
2022-12-03T18:42:23.134Z,56.67
2022-12-03T18:44:51.452Z,76.40
2022-12-03T18:47:28.779Z,50.83
2022-12-03T18:49:56.712Z,50.45
2022-12-03T18:52:25.172Z,58.40
2022-12-03T18:54:52.663Z,55.45
2022-12-03T18:57:19.877Z,56.13
2022-12-03T18:59:47.237Z,52.40
2022-12-03T19:02:45.919Z,58.65
2022-12-03T19:05:07.038Z,61.88
2022-12-03T19:07:34.325Z,61.00
2022-12-03T19:10:01.651Z,63.92
2022-12-03T19:12:28.922Z,59.45
2022-12-03T19:14:56.267Z,62.47
2022-12-03T19:17:23.713Z,61.45
2022-12-03T19:19:50.978Z,61.03
2022-12-03T19:22:18.406Z,61.75
2022-12-03T19:24:45.730Z,66.22
2022-12-03T19:27:12.959Z,59.63
2022-12-03T19:29:40.447Z,59.22
2022-12-03T19:32:07.765Z,61.42
2022-12-03T19:34:35.266Z,53.00
2022-12-03T19:37:02.584Z,56.15
2022-12-03T19:39:29.990Z,59.67
2022-12-03T19:41:57.821Z,67.88
2022-12-03T19:44:25.098Z,66.57
2022-12-03T19:46:54.972Z,54.70
2022-12-03T19:49:22.385Z,65.40
2022-12-03T19:51:49.974Z,57.40
2022-12-03T19:54:17.693Z,55.28
2022-12-03T19:56:45.194Z,60.92
2022-12-03T19:59:13.616Z,59.17
2022-12-03T20:01:42.995Z,65.85
2022-12-03T20:04:11.912Z,64.95
2022-12-03T20:06:39.564Z,48.15
2022-12-03T20:09:17.294Z,57.47
2022-12-03T20:11:45.721Z,63.03
2022-12-03T20:14:15.346Z,57.42
2022-12-03T20:16:43.029Z,59.65
2022-12-03T20:19:11.884Z,68.85
2022-12-03T20:21:39.584Z,63.93
2022-12-03T20:24:07.873Z,61.95
2022-12-03T20:26:35.339Z,59.72
2022-12-03T20:29:02.691Z,68.07
2022-12-03T20:31:31.069Z,55.38
2022-12-03T20:33:59.678Z,61.67
2022-12-03T20:36:27.457Z,58.70
2022-12-03T20:38:55.479Z,62.83
2022-12-03T20:41:22.697Z,62.10
2022-12-03T20:43:50.281Z,64.80
2022-12-03T20:46:21.066Z,56.20
2022-12-03T20:48:48.691Z,65.35
2022-12-03T20:51:18.090Z,59.70
2022-12-03T20:53:47.584Z,61.40
2022-12-03T20:56:28.534Z,63.50
2022-12-03T20:58:55.794Z,56.05
2022-12-03T21:01:24.473Z,63.03
2022-12-03T21:03:53.003Z,47.58
2022-12-03T21:06:20.904Z,75.20
2022-12-03T21:08:48.445Z,62.85
2022-12-03T21:11:17.172Z,62.15
2022-12-03T21:13:44.672Z,71.05
2022-12-03T21:16:13.260Z,56.67
2022-12-03T21:18:40.738Z,70.85
2022-12-03T21:21:08.680Z,63.75
2022-12-03T21:23:36.406Z,62.92
2022-12-03T21:26:11.284Z,66.97
2022-12-03T21:28:39.289Z,64.50
2022-12-03T21:31:09.000Z,63.95
2022-12-03T21:33:39.803Z,62.23
2022-12-03T21:36:07.651Z,61.88
2022-12-03T21:38:35.602Z,63.28
2022-12-03T21:41:03.231Z,61.10
2022-12-03T21:43:30.595Z,64.07
2022-12-03T21:45:57.952Z,63.28
2022-12-03T21:48:25.296Z,66.72
2022-12-03T21:51:03.514Z,63.88
2022-12-03T21:53:32.209Z,64.35
2022-12-03T21:56:00.193Z,56.35
2022-12-03T21:58:27.629Z,60.90
2022-12-03T22:00:54.932Z,64.05
2022-12-03T22:03:22.321Z,61.42
2022-12-03T22:05:50.403Z,68.00
2022-12-03T22:08:17.846Z,62.10
2022-12-03T22:10:45.156Z,65.57
2022-12-03T22:13:12.503Z,58.78
2022-12-03T22:15:40.285Z,55.75
2022-12-03T22:18:07.729Z,63.38
2022-12-03T22:20:35.044Z,55.17
2022-12-03T22:23:02.445Z,65.97
2022-12-03T22:25:30.738Z,57.35
2022-12-03T22:27:57.948Z,61.15
2022-12-03T22:30:25.344Z,58.75
2022-12-03T22:32:52.655Z,65.47
2022-12-03T22:35:19.919Z,69.43
2022-12-03T22:37:47.183Z,61.45
2022-12-03T22:40:14.612Z,69.57
2022-12-03T22:42:46.392Z,57.88
2022-12-03T22:45:17.823Z,55.13
2022-12-03T22:47:45.109Z,59.10
2022-12-03T22:50:12.376Z,58.47
2022-12-03T22:52:39.716Z,56.20
2022-12-03T22:55:07.126Z,59.20
2022-12-03T22:57:34.386Z,63.40
2022-12-03T23:00:01.603Z,63.75
2022-12-03T23:02:28.874Z,61.13
2022-12-03T23:04:56.542Z,63.45
2022-12-03T23:07:23.887Z,61.70
2022-12-03T23:09:51.148Z,59.88
2022-12-03T23:12:18.386Z,67.50
2022-12-03T23:14:45.657Z,63.30
2022-12-03T23:17:12.888Z,62.17
2022-12-03T23:19:40.191Z,63.72
2022-12-03T23:22:07.420Z,61.08
2022-12-03T23:24:34.658Z,64.80
2022-12-03T23:27:02.019Z,57.75
2022-12-03T23:29:32.230Z,62.50
2022-12-03T23:31:59.439Z,60.78
2022-12-03T23:34:26.893Z,65.95
2022-12-03T23:36:54.137Z,67.57
2022-12-03T23:39:21.414Z,59.08
2022-12-03T23:41:52.814Z,62.00
2022-12-03T23:44:20.217Z,64.15
2022-12-03T23:46:47.507Z,66.90
2022-12-03T23:49:16.859Z,63.45
2022-12-03T23:51:44.095Z,73.88
2022-12-03T23:54:12.211Z,67.28
2022-12-03T23:56:41.569Z,66.32
2022-12-03T23:59:16.243Z,66.03
